createdAt,value
2019-05-22T00:00:00.000Z,1013.16
2019-05-22T00:09:37.000Z,1013.19
2019-05-22T00:14:19.000Z,1013.22
2019-05-22T00:19:07.000Z,1013.26
2019-05-22T00:23:55.000Z,1013.31
2019-05-22T00:28:42.000Z,1013.31
2019-05-22T00:33:29.000Z,1013.35
2019-05-22T00:38:17.000Z,1013.31
2019-05-22T00:43:04.000Z,1013.31
2019-05-22T00:47:52.000Z,1013.35
2019-05-22T00:52:41.000Z,1013.40
2019-05-22T00:57:27.000Z,1013.45
2019-05-22T01:02:14.000Z,1013.46
2019-05-22T01:07:02.000Z,1013.50
2019-05-22T01:11:50.000Z,1013.52
2019-05-22T01:16:36.000Z,1013.62
2019-05-22T01:21:24.000Z,1013.55
2019-05-22T01:26:11.000Z,1013.60
2019-05-22T01:30:59.000Z,1013.63
2019-05-22T01:40:37.000Z,1013.67
2019-05-22T01:45:21.000Z,1013.75
2019-05-22T01:50:10.000Z,1013.75
2019-05-22T01:54:56.000Z,1013.76
2019-05-22T01:59:43.000Z,1013.73
2019-05-22T02:04:35.000Z,1013.78
2019-05-22T02:09:17.000Z,1013.79
2019-05-22T02:14:04.000Z,1013.74
2019-05-22T02:18:52.000Z,1013.77
2019-05-22T02:23:39.000Z,1013.75
2019-05-22T02:28:27.000Z,1013.76
2019-05-22T02:33:15.000Z,1013.76
2019-05-22T02:38:02.000Z,1013.75
2019-05-22T02:42:49.000Z,1013.79
2019-05-22T02:47:36.000Z,1013.84
2019-05-22T02:52:24.000Z,1013.79
2019-05-22T02:57:11.000Z,1013.81
2019-05-22T03:01:59.000Z,1013.90
2019-05-22T03:06:46.000Z,1013.93
2019-05-22T03:11:35.000Z,1013.99
2019-05-22T03:16:23.000Z,1013.99
2019-05-22T03:21:11.000Z,1013.98
2019-05-22T03:25:59.000Z,1014.08
2019-05-22T03:30:47.000Z,1014.19
2019-05-22T03:35:36.000Z,1014.28
2019-05-22T03:40:24.000Z,1014.32
2019-05-22T03:45:12.000Z,1014.39
2019-05-22T03:50:00.000Z,1014.44
2019-05-22T03:54:48.000Z,1014.45
2019-05-22T03:59:36.000Z,1014.50
2019-05-22T04:04:25.000Z,1014.52
2019-05-22T04:09:13.000Z,1014.52
2019-05-22T04:14:01.000Z,1014.54
2019-05-22T04:18:49.000Z,1014.55
2019-05-22T04:23:37.000Z,1014.69
2019-05-22T04:28:26.000Z,1014.65
2019-05-22T04:33:14.000Z,1014.71
2019-05-22T04:38:02.000Z,1014.73
2019-05-22T04:42:51.000Z,1014.71
2019-05-22T04:47:39.000Z,1014.77
2019-05-22T04:52:27.000Z,1014.82
2019-05-22T04:57:15.000Z,1014.86
2019-05-22T05:02:04.000Z,1014.89
2019-05-22T05:06:52.000Z,1014.95
2019-05-22T05:11:40.000Z,1014.94
2019-05-22T05:16:28.000Z,1014.97
2019-05-22T05:21:17.000Z,1015.05
2019-05-22T05:26:05.000Z,1015.09
2019-05-22T05:30:53.000Z,1015.16
2019-05-22T05:35:41.000Z,1015.25
2019-05-22T05:40:30.000Z,1015.22
2019-05-22T05:45:19.000Z,1015.26
2019-05-22T05:50:06.000Z,1015.32
2019-05-22T05:54:54.000Z,1015.38
2019-05-22T05:59:42.000Z,1015.38
2019-05-22T06:04:31.000Z,1015.43
2019-05-22T06:09:19.000Z,1015.42
2019-05-22T06:14:07.000Z,1015.45
2019-05-22T06:18:56.000Z,1015.48
2019-05-22T06:23:44.000Z,1015.52
2019-05-22T06:28:32.000Z,1015.65
2019-05-22T06:33:21.000Z,1015.75
2019-05-22T06:38:09.000Z,1015.78
2019-05-22T06:42:57.000Z,1015.78
2019-05-22T06:47:46.000Z,1015.93
2019-05-22T06:52:34.000Z,1015.87
2019-05-22T06:57:22.000Z,1015.90
2019-05-22T07:02:11.000Z,1015.96
2019-05-22T07:06:59.000Z,1015.97
2019-05-22T07:11:48.000Z,1015.97
2019-05-22T07:16:36.000Z,1016.02
2019-05-22T07:21:24.000Z,1016.08
2019-05-22T07:26:12.000Z,1016.12
2019-05-22T07:31:01.000Z,1016.11
2019-05-22T07:35:49.000Z,1016.15
2019-05-22T07:40:37.000Z,1016.18
2019-05-22T07:45:25.000Z,1016.21
2019-05-22T07:50:13.000Z,1016.16
2019-05-22T07:55:02.000Z,1016.15
2019-05-22T07:59:50.000Z,1016.22
2019-05-22T08:04:38.000Z,1016.21
2019-05-22T08:09:26.000Z,1016.30
2019-05-22T08:14:15.000Z,1016.31
2019-05-22T08:19:03.000Z,1016.33
2019-05-22T08:23:51.000Z,1016.29
2019-05-22T08:28:39.000Z,1016.30
2019-05-22T08:33:28.000Z,1016.31
2019-05-22T08:38:17.000Z,1016.35
2019-05-22T08:43:03.000Z,1016.42
2019-05-22T08:47:51.000Z,1016.52
2019-05-22T08:52:42.000Z,1016.50
2019-05-22T08:57:27.000Z,1016.59
2019-05-22T09:02:16.000Z,1016.62
2019-05-22T09:07:04.000Z,1016.66
2019-05-22T09:11:52.000Z,1016.80
2019-05-22T09:16:41.000Z,1016.80
2019-05-22T09:21:29.000Z,1016.77
2019-05-22T09:26:17.000Z,1016.90
2019-05-22T09:31:05.000Z,1016.97
2019-05-22T09:35:53.000Z,1017.00
2019-05-22T11:21:09.000Z,1017.70
2019-05-22T11:25:57.000Z,1017.64
2019-05-22T11:30:46.000Z,1017.69
2019-05-22T11:35:34.000Z,1017.70
2019-05-22T11:40:22.000Z,1017.77
2019-05-22T11:45:10.000Z,1017.73
2019-05-22T11:49:59.000Z,1017.75
2019-05-22T11:54:48.000Z,1017.67
2019-05-22T11:59:37.000Z,1017.78
2019-05-22T12:04:25.000Z,1017.79
2019-05-22T12:09:13.000Z,1017.81
2019-05-22T12:14:01.000Z,1017.79
2019-05-22T12:18:49.000Z,1017.82
2019-05-22T12:23:37.000Z,1017.79
2019-05-22T12:28:24.000Z,1017.82
2019-05-22T12:33:12.000Z,1017.87
2019-05-22T12:38:01.000Z,1017.90
2019-05-22T12:42:49.000Z,1017.96
2019-05-22T12:47:37.000Z,1017.95
2019-05-22T13:30:54.000Z,1018.07
2019-05-22T13:35:41.000Z,1018.00
2019-05-22T13:40:28.000Z,1018.08
2019-05-22T13:45:16.000Z,1018.18
2019-05-22T13:50:03.000Z,1018.16
2019-05-22T13:54:51.000Z,1018.24
2019-05-22T13:59:39.000Z,1018.28
2019-05-22T14:04:27.000Z,1018.29
2019-05-22T14:09:15.000Z,1018.35
2019-05-22T14:14:04.000Z,1018.36
2019-05-22T14:18:52.000Z,1018.30
2019-05-22T14:23:41.000Z,1018.44
2019-05-22T14:28:29.000Z,1018.37
2019-05-22T14:38:04.000Z,1018.40
2019-05-22T14:42:53.000Z,1018.45
2019-05-22T14:47:41.000Z,1018.50
2019-05-22T14:52:28.000Z,1018.46
2019-05-22T14:57:16.000Z,1018.52
2019-05-22T15:02:05.000Z,1018.51
2019-05-22T15:06:53.000Z,1018.56
2019-05-22T15:11:41.000Z,1018.58
2019-05-22T15:16:29.000Z,1018.59
2019-05-22T15:21:19.000Z,1018.64
2019-05-22T15:26:05.000Z,1018.64
2019-05-22T15:40:29.000Z,1018.66
2019-05-22T15:45:16.000Z,1018.67
2019-05-22T15:50:02.000Z,1018.69
2019-05-22T15:59:39.000Z,1018.74
2019-05-22T16:04:24.000Z,1018.78
2019-05-22T16:09:13.000Z,1018.80
2019-05-22T16:14:00.000Z,1018.80
2019-05-22T16:18:48.000Z,1018.80
2019-05-22T16:23:37.000Z,1018.78
2019-05-22T16:28:25.000Z,1018.74
2019-05-22T16:33:13.000Z,1018.75
2019-05-22T16:38:01.000Z,1018.72
2019-05-22T16:42:49.000Z,1018.71
2019-05-22T16:47:37.000Z,1018.71
2019-05-22T16:52:25.000Z,1018.80
2019-05-22T16:57:13.000Z,1018.78
2019-05-22T16:57:13.000Z,1018.78
2019-05-22T17:02:01.000Z,1018.83
2019-05-22T17:06:50.000Z,1018.88
2019-05-22T17:11:38.000Z,1018.83
2019-05-22T17:16:28.000Z,1018.87
2019-05-22T17:21:13.000Z,1018.88
2019-05-22T17:26:02.000Z,1018.91
2019-05-22T17:30:50.000Z,1018.95
2019-05-22T17:35:39.000Z,1018.92
2019-05-22T17:40:25.000Z,1018.98
2019-05-22T17:45:13.000Z,1018.99
2019-05-22T17:50:02.000Z,1019.02
2019-05-22T17:54:50.000Z,1019.01
2019-05-22T17:59:38.000Z,1019.06
2019-05-22T18:04:26.000Z,1019.10
2019-05-22T18:09:14.000Z,1019.11
2019-05-22T18:14:02.000Z,1019.10
2019-05-22T18:18:50.000Z,1019.12
2019-05-22T18:23:38.000Z,1019.23
2019-05-22T18:28:26.000Z,1019.24
2019-05-22T18:33:14.000Z,1019.32
2019-05-22T18:38:02.000Z,1019.38
2019-05-22T18:42:50.000Z,1019.46
2019-05-22T18:47:38.000Z,1019.51
2019-05-22T18:52:27.000Z,1019.54
2019-05-22T18:57:14.000Z,1019.62
2019-05-22T19:02:14.000Z,1019.69
2019-05-22T19:06:48.000Z,1019.70
2019-05-22T19:11:36.000Z,1019.74
2019-05-22T19:16:25.000Z,1019.74
2019-05-22T19:21:12.000Z,1019.83
2019-05-22T20:33:12.000Z,1020.37
2019-05-22T20:37:55.000Z,1020.42
2019-05-22T20:42:42.000Z,1020.48
2019-05-22T20:47:29.000Z,1020.50
2019-05-22T20:52:16.000Z,1020.57
2019-05-22T20:57:04.000Z,1020.57
2019-05-22T21:01:51.000Z,1020.60
2019-05-22T21:06:39.000Z,1020.64
2019-05-22T21:11:27.000Z,1020.63
2019-05-22T21:16:13.000Z,1020.66
2019-05-22T21:21:02.000Z,1020.63
2019-05-22T21:25:48.000Z,1020.65
2019-05-22T21:30:36.000Z,1020.68
2019-05-22T21:35:24.000Z,1020.67
2019-05-22T21:40:10.000Z,1020.64
2019-05-22T21:44:58.000Z,1020.65
2019-05-22T21:49:47.000Z,1020.63
2019-05-22T21:54:34.000Z,1020.65
2019-05-22T21:59:20.000Z,1020.67
2019-05-22T22:04:08.000Z,1020.68
2019-05-22T22:08:56.000Z,1020.80
2019-05-22T22:13:44.000Z,1020.79
2019-05-22T22:18:30.000Z,1020.80
2019-05-22T22:23:17.000Z,1020.83
2019-05-22T22:28:04.000Z,1020.80
2019-05-22T22:32:51.000Z,1020.76
2019-05-22T22:37:39.000Z,1020.73
2019-05-22T22:42:27.000Z,1020.78
2019-05-22T22:47:13.000Z,1020.77
2019-05-22T22:52:02.000Z,1020.73
2019-05-22T22:56:48.000Z,1020.79
2019-05-22T23:01:35.000Z,1020.78
2019-05-22T23:06:23.000Z,1020.85
2019-05-22T23:11:10.000Z,1020.90
2019-05-22T23:15:57.000Z,1020.86
2019-05-22T23:20:44.000Z,1020.83
2019-05-22T23:25:33.000Z,1020.87
2019-05-22T23:30:20.000Z,1020.89
2019-05-22T23:35:07.000Z,1020.92
2019-05-22T23:39:54.000Z,1020.92
2019-05-22T23:44:42.000Z,1020.95
2019-05-22T23:49:29.000Z,1020.92
2019-05-22T23:54:16.000Z,1020.89
2019-05-22T23:59:03.000Z,1020.88
